Time;durP1;ratioP1;P1;durP2;ratioP2;P2;SDS_P1;SDS_P2;PMS_P1;PMS_P2;Temp;Humidity;BMP_temperature;BMP_pressure;BME280_temperature;BME280_humidity;BME280_pressure;Samples;Min_cycle;Max_cycle;Signal;HPM_P1;HPM_P2
2023/12/16 00:00:42;;;;;;;0.85;0.85;;;7.60;99.90;;;;;;5094809;28;20101;-73
2023/12/16 00:03:10;;;;;;;0.80;0.80;;;6.70;99.90;;;;;;5092629;28;20047;-71
2023/12/16 00:05:36;;;;;;;1.92;1.83;;;6.70;99.90;;;;;;5074484;28;20048;-71
2023/12/16 00:08:01;;;;;;;1.52;1.42;;;6.70;99.90;;;;;;5074515;28;20090;-71
2023/12/16 00:10:27;;;;;;;0.73;0.73;;;6.80;99.90;;;;;;5079550;28;20127;-71
2023/12/16 00:12:53;;;;;;;0.90;0.90;;;7.20;99.90;;;;;;5097680;28;20093;-72
2023/12/16 00:15:19;;;;;;;0.80;0.80;;;6.70;99.90;;;;;;5102384;28;20087;-71
2023/12/16 00:17:48;;;;;;;0.90;0.90;;;6.70;99.90;;;;;;5107658;28;20096;-72
2023/12/16 00:20:14;;;;;;;0.80;0.80;;;6.80;99.90;;;;;;5086154;28;20468;-70
2023/12/16 00:22:39;;;;;;;0.90;0.90;;;6.90;99.90;;;;;;5073854;28;20033;-71
2023/12/16 00:25:09;;;;;;;0.75;0.75;;;6.80;99.90;;;;;;5089417;28;20040;-71
2023/12/16 00:27:36;;;;;;;0.80;0.80;;;6.80;99.90;;;;;;5114844;28;20043;-70
2023/12/16 00:30:02;;;;;;;0.80;0.80;;;6.80;99.90;;;;;;5115242;28;20039;-72
2023/12/16 00:32:28;;;;;;;0.80;0.80;;;6.80;99.90;;;;;;5114408;28;20046;-73
2023/12/16 00:34:54;;;;;;;0.77;0.77;;;6.80;99.90;;;;;;5104141;28;20036;-72
2023/12/16 00:37:20;;;;;;;0.70;0.70;;;6.80;99.90;;;;;;5084152;28;20044;-72
2023/12/16 00:39:46;;;;;;;0.77;0.77;;;6.80;99.90;;;;;;5074038;28;20082;-72
2023/12/16 00:42:11;;;;;;;0.75;0.75;;;6.80;99.90;;;;;;5073652;28;20036;-71
2023/12/16 00:44:38;;;;;;;0.70;0.70;;;6.80;99.90;;;;;;5073965;28;20040;-75
2023/12/16 00:47:04;;;;;;;0.77;0.77;;;6.80;99.90;;;;;;5086779;28;20042;-72
2023/12/16 00:49:30;;;;;;;0.70;0.70;;;6.80;99.90;;;;;;5093971;28;20044;-73
2023/12/16 00:51:57;;;;;;;0.70;0.70;;;7.10;99.90;;;;;;5094115;28;20075;-72
2023/12/16 00:54:23;;;;;;;0.77;0.77;;;6.80;99.90;;;;;;5092937;28;20093;-72
2023/12/16 00:56:49;;;;;;;0.80;0.80;;;6.80;99.90;;;;;;5094132;28;20047;-74
2023/12/16 00:59:16;;;;;;;1.33;1.23;;;6.80;99.90;;;;;;5093922;28;20060;-72
2023/12/16 01:01:42;;;;;;;0.70;0.70;;;6.80;99.90;;;;;;5096972;28;20036;-71
2023/12/16 01:04:09;;;;;;;0.70;0.70;;;6.80;99.90;;;;;;5099324;28;20054;-73
2023/12/16 01:06:34;;;;;;;0.70;0.70;;;6.90;99.90;;;;;;5093642;28;20069;-73
2023/12/16 01:09:00;;;;;;;0.75;0.75;;;6.80;99.90;;;;;;5093565;28;20075;-73
2023/12/16 01:11:26;;;;;;;0.80;0.80;;;6.80;99.90;;;;;;5100207;28;20035;-71
2023/12/16 01:13:51;;;;;;;0.70;0.70;;;6.80;99.90;;;;;;5093558;28;20036;-71
2023/12/16 01:16:17;;;;;;;0.88;0.88;;;6.80;99.90;;;;;;5094265;28;20028;-73
2023/12/16 01:18:43;;;;;;;0.70;0.70;;;6.90;99.90;;;;;;5094430;28;20117;-69
2023/12/16 01:21:09;;;;;;;0.73;0.73;;;6.80;99.90;;;;;;5098847;28;20111;-72
2023/12/16 01:23:36;;;;;;;0.80;0.80;;;6.80;99.90;;;;;;5092531;28;20450;-71
2023/12/16 01:26:04;;;;;;;0.77;0.77;;;6.80;99.90;;;;;;5094332;28;20434;-71
2023/12/16 01:28:30;;;;;;;0.80;0.80;;;6.80;99.90;;;;;;5073841;28;20036;-71
2023/12/16 01:30:56;;;;;;;0.77;0.77;;;6.70;99.90;;;;;;5073637;28;20043;-71
2023/12/16 01:33:22;;;;;;;0.80;0.80;;;6.70;99.90;;;;;;5098614;28;20047;-71
2023/12/16 01:35:47;;;;;;;1.00;1.00;;;6.90;99.90;;;;;;5090350;28;20040;-70
2023/12/16 01:38:13;;;;;;;0.85;0.85;;;6.70;99.90;;;;;;5076514;28;20044;-71
2023/12/16 01:40:39;;;;;;;0.80;0.80;;;6.70;99.90;;;;;;5092205;28;20522;-72
2023/12/16 01:43:04;;;;;;;0.90;0.90;;;6.60;99.90;;;;;;5089623;28;20032;-71
2023/12/16 01:45:30;;;;;;;0.77;0.77;;;6.70;99.90;;;;;;5087006;28;20036;-72
2023/12/16 01:47:56;;;;;;;0.70;0.70;;;6.60;99.90;;;;;;5087591;28;20487;-70
2023/12/16 01:50:23;;;;;;;0.80;0.80;;;6.60;99.90;;;;;;5073570;28;20051;-72
2023/12/16 01:52:51;;;;;;;0.70;0.70;;;6.60;99.90;;;;;;5085144;28;20109;-72
2023/12/16 01:55:17;;;;;;;0.70;0.70;;;6.60;99.90;;;;;;5099660;28;20064;-71
2023/12/16 01:57:44;;;;;;;0.70;0.70;;;6.50;99.90;;;;;;5094902;28;20098;-73
2023/12/16 02:00:11;;;;;;;;;;;6.50;99.90;;;;;;5091317;28;20036;-73
2023/12/16 02:02:38;;;;;;;0.90;0.90;;;6.40;99.90;;;;;;5092240;28;19950;-72
2023/12/16 02:05:04;;;;;;;0.70;0.70;;;6.80;99.90;;;;;;5095576;28;20047;-72
2023/12/16 02:07:29;;;;;;;0.80;0.80;;;6.40;99.90;;;;;;5091867;28;20090;-73
2023/12/16 02:09:55;;;;;;;0.80;0.80;;;6.30;99.90;;;;;;5089800;28;20067;-73
2023/12/16 02:12:21;;;;;;;0.80;0.80;;;6.30;99.90;;;;;;5095889;28;20533;-72
2023/12/16 02:14:47;;;;;;;0.80;0.80;;;6.30;99.90;;;;;;5096810;28;20043;-71
2023/12/16 02:17:13;;;;;;;0.73;0.73;;;7.00;99.90;;;;;;5099601;28;20036;-72
2023/12/16 02:19:40;;;;;;;0.82;0.82;;;6.20;99.90;;;;;;5090806;28;20040;-73
2023/12/16 02:22:06;;;;;;;0.77;0.77;;;6.20;99.90;;;;;;5095924;28;20100;-73
2023/12/16 02:24:36;;;;;;;0.73;0.73;;;6.40;99.90;;;;;;5096263;28;20043;-73
2023/12/16 02:27:02;;;;;;;0.80;0.80;;;6.20;99.90;;;;;;5096557;28;20044;-72
2023/12/16 02:29:27;;;;;;;0.85;0.85;;;6.20;99.90;;;;;;5104719;28;20035;-73
2023/12/16 02:31:53;;;;;;;1.00;1.00;;;6.10;99.90;;;;;;5096353;28;20044;-74
2023/12/16 02:34:19;;;;;;;1.00;1.00;;;6.10;99.90;;;;;;5096331;28;20074;-72
2023/12/16 02:36:44;;;;;;;3.10;2.80;;;6.10;99.90;;;;;;5078697;28;20063;-72
2023/12/16 02:39:10;;;;;;;0.90;0.90;;;6.00;99.90;;;;;;5089002;28;20076;-73
2023/12/16 02:41:35;;;;;;;0.90;0.90;;;6.00;99.90;;;;;;5106340;28;20194;-74
2023/12/16 02:44:01;;;;;;;0.90;0.90;;;6.00;99.90;;;;;;5100563;28;20515;-72
2023/12/16 02:46:26;;;;;;;0.90;0.90;;;6.00;99.90;;;;;;5092907;28;20075;-72
2023/12/16 02:48:52;;;;;;;1.65;1.55;;;6.00;99.90;;;;;;5092986;28;20044;-73
2023/12/16 02:51:19;;;;;;;0.80;0.80;;;5.90;99.90;;;;;;5093767;28;20125;-70
2023/12/16 02:53:45;;;;;;;0.70;0.70;;;5.90;99.90;;;;;;5082444;28;20048;-72
2023/12/16 02:56:11;;;;;;;1.00;1.00;;;5.90;99.90;;;;;;5091170;28;20040;-71
2023/12/16 02:58:37;;;;;;;1.07;1.00;;;5.80;99.90;;;;;;5095694;28;20502;-73
2023/12/16 03:01:02;;;;;;;0.70;0.70;;;5.80;99.90;;;;;;5090632;28;20036;-73
2023/12/16 03:03:28;;;;;;;0.80;0.80;;;5.80;99.90;;;;;;5096667;28;20433;-73
2023/12/16 03:05:53;;;;;;;9.48;2.30;;;5.80;99.90;;;;;;5089014;28;20036;-73
2023/12/16 03:08:19;;;;;;;0.85;0.85;;;5.90;99.90;;;;;;5092793;28;20043;-72
2023/12/16 03:10:45;;;;;;;0.80;0.80;;;5.80;99.90;;;;;;5093578;28;20092;-74
2023/12/16 03:13:10;;;;;;;1.45;1.35;;;5.80;99.90;;;;;;5082862;28;20448;-74
2023/12/16 03:15:36;;;;;;;0.75;0.75;;;5.70;99.90;;;;;;5078675;28;20037;-72
2023/12/16 03:18:01;;;;;;;0.70;0.70;;;5.70;99.90;;;;;;5099341;28;20502;-76
2023/12/16 03:20:27;;;;;;;0.80;0.80;;;5.70;99.90;;;;;;5088922;28;20046;-72
2023/12/16 03:22:53;;;;;;;0.80;0.80;;;5.70;99.90;;;;;;5095231;28;20127;-73
2023/12/16 03:25:19;;;;;;;0.90;0.90;;;6.10;99.90;;;;;;5089775;28;20044;-71
2023/12/16 03:27:45;;;;;;;0.80;0.80;;;5.70;99.90;;;;;;5096209;28;20066;-73
2023/12/16 03:30:11;;;;;;;0.80;0.80;;;5.70;99.90;;;;;;5085247;28;20474;-74
2023/12/16 03:32:36;;;;;;;0.80;0.80;;;5.60;99.90;;;;;;5078844;28;20040;-72
2023/12/16 03:35:02;;;;;;;0.80;0.80;;;5.60;99.90;;;;;;5081065;28;20464;-74
2023/12/16 03:37:28;;;;;;;0.80;0.80;;;5.60;99.90;;;;;;5093249;28;20115;-73
2023/12/16 03:39:54;;;;;;;0.90;0.90;;;5.60;99.90;;;;;;5087475;28;20499;-74
2023/12/16 03:42:20;;;;;;;1.15;1.10;;;5.60;99.90;;;;;;5076944;28;20091;-72
2023/12/16 03:44:48;;;;;;;0.80;0.80;;;5.60;99.90;;;;;;5087920;28;20047;-73
2023/12/16 03:47:14;;;;;;;1.40;0.80;;;5.60;99.90;;;;;;5093625;28;20036;-74
2023/12/16 03:49:40;;;;;;;1.00;1.00;;;6.40;99.90;;;;;;5087373;28;20040;-72
2023/12/16 03:52:06;;;;;;;0.80;0.80;;;5.50;99.90;;;;;;5091947;28;20036;-73
2023/12/16 03:54:32;;;;;;;0.70;0.70;;;5.50;99.90;;;;;;5089557;28;20037;-72
2023/12/16 03:56:58;;;;;;;0.77;0.77;;;5.50;99.90;;;;;;5089037;28;20438;-71
2023/12/16 03:59:23;;;;;;;0.80;0.80;;;6.00;99.90;;;;;;5093079;28;20078;-74
2023/12/16 04:01:49;;;;;;;0.73;0.73;;;5.50;99.90;;;;;;5086428;28;20039;-73
2023/12/16 04:04:14;;;;;;;0.90;0.90;;;5.50;99.90;;;;;;5089306;28;20408;-73
2023/12/16 04:06:43;;;;;;;0.80;0.80;;;5.50;99.90;;;;;;5094205;28;20039;-70
2023/12/16 04:09:09;;;;;;;0.80;0.80;;;6.20;99.90;;;;;;5092094;28;20044;-71
2023/12/16 04:11:36;;;;;;;1.10;1.00;;;5.60;99.90;;;;;;5094227;28;20460;-75
2023/12/16 04:14:01;;;;;;;0.80;0.80;;;5.50;99.90;;;;;;5094035;28;20048;-71
2023/12/16 04:16:27;;;;;;;0.80;0.80;;;5.50;99.90;;;;;;5093391;28;20055;-72
2023/12/16 04:18:53;;;;;;;0.80;0.80;;;5.40;99.90;;;;;;5102541;28;20044;-72
2023/12/16 04:21:18;;;;;;;0.90;0.90;;;5.40;99.90;;;;;;5094031;27;20047;-71
2023/12/16 04:23:44;;;;;;;0.90;0.90;;;5.40;99.90;;;;;;5094196;28;20043;-73
2023/12/16 04:26:09;;;;;;;0.80;0.80;;;5.40;99.90;;;;;;5093824;28;20032;-74
2023/12/16 04:28:36;;;;;;;0.80;0.80;;;5.40;99.90;;;;;;5095802;28;20082;-71
2023/12/16 04:31:01;;;;;;;0.77;0.77;;;5.40;99.90;;;;;;5104339;28;20044;-72
2023/12/16 04:33:27;;;;;;;0.80;0.80;;;5.40;99.90;;;;;;5093128;28;20289;-70
2023/12/16 04:35:52;;;;;;;0.80;0.80;;;5.40;99.90;;;;;;5092710;28;20044;-76
2023/12/16 04:38:18;;;;;;;0.80;0.80;;;5.70;99.90;;;;;;5093086;28;20369;-72
2023/12/16 04:40:44;;;;;;;0.80;0.80;;;5.40;99.90;;;;;;5093640;28;20036;-74
2023/12/16 04:43:09;;;;;;;0.90;0.90;;;5.40;99.90;;;;;;5093459;28;20123;-72
2023/12/16 04:45:35;;;;;;;0.80;0.80;;;5.40;99.90;;;;;;5093870;28;20059;-72
2023/12/16 04:48:01;;;;;;;1.30;1.20;;;5.40;99.90;;;;;;5093600;28;20074;-71
2023/12/16 04:50:27;;;;;;;0.73;0.73;;;6.20;99.90;;;;;;5078837;28;20071;-74
2023/12/16 04:52:52;;;;;;;3.42;1.88;;;5.40;99.90;;;;;;5085706;28;20039;-73
2023/12/16 04:55:18;;;;;;;0.90;0.90;;;5.40;99.90;;;;;;5093580;28;20055;-73
2023/12/16 04:57:44;;;;;;;0.80;0.80;;;5.40;99.90;;;;;;5095552;28;20116;-71
2023/12/16 05:00:11;;;;;;;0.77;0.77;;;5.40;99.90;;;;;;5091815;28;20037;-71
2023/12/16 05:02:36;;;;;;;1.65;1.55;;;5.40;99.90;;;;;;5077543;28;20544;-70
2023/12/16 05:05:02;;;;;;;0.80;0.80;;;5.40;99.90;;;;;;5092591;28;20119;-70
2023/12/16 05:07:28;;;;;;;0.80;0.80;;;5.40;99.90;;;;;;5088737;28;20039;-71
2023/12/16 05:09:53;;;;;;;0.73;0.73;;;5.30;99.90;;;;;;5083984;28;20466;-73
2023/12/16 05:12:19;;;;;;;0.80;0.80;;;5.30;99.90;;;;;;5094318;28;20488;-71
2023/12/16 05:14:44;;;;;;;0.80;0.80;;;5.30;99.90;;;;;;5075610;28;20040;-73
2023/12/16 05:17:10;;;;;;;0.80;0.80;;;5.30;99.90;;;;;;5078977;28;20044;-71
2023/12/16 05:19:35;;;;;;;0.90;0.90;;;5.30;99.90;;;;;;5093190;28;20109;-73
2023/12/16 05:22:01;;;;;;;0.80;0.80;;;5.30;99.90;;;;;;5093272;28;20134;-72
2023/12/16 05:24:27;;;;;;;1.00;1.00;;;5.30;99.90;;;;;;5099513;28;20040;-70
2023/12/16 05:26:52;;;;;;;0.80;0.80;;;5.20;99.90;;;;;;5091966;28;20379;-70
2023/12/16 05:29:18;;;;;;;0.82;0.82;;;5.20;99.90;;;;;;5085707;28;20047;-73
2023/12/16 05:31:43;;;;;;;0.80;0.80;;;5.20;99.90;;;;;;5084580;28;20475;-73
2023/12/16 05:34:10;;;;;;;2.08;1.10;;;5.20;99.90;;;;;;5097028;28;20040;-73
2023/12/16 05:36:36;;;;;;;1.23;1.13;;;5.20;99.90;;;;;;5091901;28;20048;-71
2023/12/16 05:39:01;;;;;;;0.82;0.82;;;5.20;99.90;;;;;;5093391;28;20050;-71
2023/12/16 05:41:27;;;;;;;0.73;0.73;;;5.10;99.90;;;;;;5097261;28;20118;-71
2023/12/16 05:43:53;;;;;;;0.80;0.80;;;5.20;99.90;;;;;;5092889;28;20024;-72
2023/12/16 05:46:18;;;;;;;0.80;0.80;;;5.10;99.90;;;;;;5083874;28;20112;-71
2023/12/16 05:48:44;;;;;;;0.80;0.80;;;5.10;99.90;;;;;;5085063;28;20059;-71
2023/12/16 05:51:09;;;;;;;0.98;0.85;;;5.10;99.90;;;;;;5083161;28;20033;-78
2023/12/16 05:53:35;;;;;;;1.30;1.20;;;5.10;99.90;;;;;;5094136;28;20154;-74
2023/12/16 05:56:05;;;;;;;0.80;0.80;;;5.10;99.90;;;;;;5094251;28;20035;-75
2023/12/16 05:58:30;;;;;;;0.80;0.80;;;5.10;99.90;;;;;;5096533;28;20040;-70
2023/12/16 06:00:56;;;;;;;0.80;0.80;;;5.10;99.90;;;;;;5086287;28;20063;-70
2023/12/16 06:03:22;;;;;;;0.90;0.90;;;5.10;99.90;;;;;;5091066;28;20089;-68
2023/12/16 06:05:48;;;;;;;0.80;0.80;;;5.10;99.90;;;;;;5089759;28;20052;-69
2023/12/16 06:08:13;;;;;;;0.80;0.80;;;5.10;99.90;;;;;;5088234;28;20297;-70
2023/12/16 06:10:39;;;;;;;0.80;0.80;;;5.10;99.90;;;;;;5093428;28;20129;-68
2023/12/16 06:13:05;;;;;;;3.70;1.45;;;5.00;99.90;;;;;;5097790;28;20032;-69
2023/12/16 06:15:30;;;;;;;0.80;0.80;;;6.10;99.90;;;;;;5106610;28;20038;-69
2023/12/16 06:17:57;;;;;;;2.03;1.90;;;5.00;99.90;;;;;;5100769;28;20044;-69
2023/12/16 06:20:23;;;;;;;;;;;5.00;99.90;;;;;;5096938;28;20480;-69
2023/12/16 06:22:48;;;;;;;0.80;0.80;;;5.00;99.90;;;;;;5096986;28;19916;-69
2023/12/16 06:25:14;;;;;;;0.90;0.90;;;5.00;99.90;;;;;;5104278;28;20028;-69
2023/12/16 06:27:40;;;;;;;0.80;0.80;;;5.00;99.90;;;;;;5102335;28;20028;-69
2023/12/16 06:30:08;;;;;;;0.80;0.80;;;5.00;99.90;;;;;;5104176;28;20040;-69
2023/12/16 06:32:34;;;;;;;0.75;0.75;;;4.90;99.90;;;;;;5095795;28;20032;-69
2023/12/16 06:35:00;;;;;;;0.80;0.80;;;5.00;99.90;;;;;;5093397;28;20124;-69
2023/12/16 06:37:25;;;;;;;0.80;0.80;;;5.00;99.90;;;;;;5103208;28;20043;-69
2023/12/16 06:39:51;;;;;;;1.73;1.63;;;5.00;99.90;;;;;;5103920;28;20502;-68
2023/12/16 06:42:16;;;;;;;0.75;0.75;;;5.00;99.90;;;;;;5096020;28;20057;-68
2023/12/16 06:44:42;;;;;;;1.00;1.00;;;5.00;99.90;;;;;;5100474;28;20031;-69
2023/12/16 06:47:08;;;;;;;0.80;0.80;;;5.00;99.90;;;;;;5095472;28;20067;-69
2023/12/16 06:49:33;;;;;;;0.90;0.90;;;5.00;99.90;;;;;;5091506;28;20044;-68
2023/12/16 06:51:59;;;;;;;0.80;0.80;;;5.00;99.90;;;;;;5086266;28;20035;-68
2023/12/16 06:54:24;;;;;;;0.82;0.82;;;5.00;99.90;;;;;;5100161;28;20039;-68
2023/12/16 06:56:50;;;;;;;0.80;0.80;;;5.00;99.90;;;;;;5097120;28;20475;-69
2023/12/16 06:59:17;;;;;;;0.80;0.80;;;5.10;99.90;;;;;;5096895;28;20107;-68
2023/12/16 07:01:42;;;;;;;;;;;5.10;99.90;;;;;;5081862;28;20040;-68
2023/12/16 07:04:08;;;;;;;0.82;0.82;;;5.10;99.90;;;;;;5094562;28;20263;-70
2023/12/16 07:06:34;;;;;;;0.80;0.80;;;5.10;99.90;;;;;;5101193;28;20040;-70
2023/12/16 07:09:00;;;;;;;0.80;0.80;;;5.10;99.90;;;;;;5078889;28;20121;-68
2023/12/16 07:11:25;;;;;;;0.80;0.80;;;5.20;99.90;;;;;;5088643;28;20486;-68
2023/12/16 07:13:51;;;;;;;0.80;0.80;;;5.20;99.90;;;;;;5084767;28;20040;-69
2023/12/16 07:16:16;;;;;;;0.80;0.80;;;5.20;99.90;;;;;;5092000;28;20059;-71
2023/12/16 07:18:42;;;;;;;1.30;1.20;;;5.20;99.90;;;;;;5095212;28;20480;-72
2023/12/16 07:21:08;;;;;;;0.90;0.90;;;5.20;99.90;;;;;;5095921;28;20497;-72
2023/12/16 07:23:34;;;;;;;0.80;0.80;;;5.20;99.90;;;;;;5112585;27;20046;-69
2023/12/16 07:26:00;;;;;;;3.22;1.35;;;5.20;99.90;;;;;;5099685;28;20132;-70
2023/12/16 07:28:26;;;;;;;1.00;0.90;;;5.40;99.90;;;;;;5088124;28;20115;-70
2023/12/16 07:30:52;;;;;;;0.80;0.80;;;5.30;99.90;;;;;;5084161;28;20473;-68
2023/12/16 07:33:17;;;;;;;0.73;0.73;;;5.30;99.90;;;;;;5105991;28;20040;-68
2023/12/16 07:35:44;;;;;;;0.75;0.75;;;5.40;99.90;;;;;;5096939;28;20036;-78
2023/12/16 07:38:10;;;;;;;0.80;0.80;;;5.40;99.90;;;;;;5095173;28;20048;-67
2023/12/16 07:40:36;;;;;;;0.82;0.82;;;5.40;99.90;;;;;;5097539;28;20084;-68
2023/12/16 07:43:02;;;;;;;0.80;0.80;;;5.40;99.90;;;;;;5087815;28;20048;-70
2023/12/16 07:45:28;;;;;;;2.47;2.27;;;5.40;99.90;;;;;;5092773;28;20034;-70
2023/12/16 07:47:53;;;;;;;0.73;0.73;;;5.50;99.90;;;;;;5091226;28;20387;-70
2023/12/16 07:50:20;;;;;;;0.90;0.90;;;5.60;99.90;;;;;;5093104;28;20048;-77
2023/12/16 07:52:46;;;;;;;0.80;0.80;;;5.60;99.90;;;;;;5091840;28;20048;-72
2023/12/16 07:55:12;;;;;;;0.70;0.70;;;6.30;99.90;;;;;;5091695;28;20074;-70
2023/12/16 07:57:38;;;;;;;0.80;0.80;;;5.60;99.90;;;;;;5091682;28;20071;-70
2023/12/16 08:00:05;;;;;;;0.80;0.80;;;5.70;99.90;;;;;;5087213;28;20085;-71
2023/12/16 08:02:33;;;;;;;1.08;1.00;;;5.70;99.90;;;;;;5089220;28;20043;-72
2023/12/16 08:04:58;;;;;;;0.80;0.80;;;6.40;99.90;;;;;;5091546;28;20036;-72
2023/12/16 08:07:24;;;;;;;0.90;0.90;;;5.80;99.90;;;;;;5093071;28;20086;-70
2023/12/16 08:09:50;;;;;;;1.70;1.60;;;6.70;99.90;;;;;;5089899;28;20480;-70
2023/12/16 08:12:15;;;;;;;0.88;0.88;;;5.80;99.90;;;;;;5093974;28;20078;-73
2023/12/16 08:14:41;;;;;;;0.80;0.80;;;5.80;99.90;;;;;;5093762;28;20383;-70
2023/12/16 08:17:06;;;;;;;0.80;0.80;;;5.80;99.90;;;;;;5091077;28;20060;-71
2023/12/16 08:19:32;;;;;;;0.70;0.70;;;5.90;99.90;;;;;;5093931;28;20059;-71
2023/12/16 08:22:00;;;;;;;0.77;0.77;;;5.50;99.90;;;;;;5093482;28;20459;-70
2023/12/16 08:24:26;;;;;;;0.77;0.77;;;5.90;99.90;;;;;;5093529;28;20066;-77
2023/12/16 08:26:51;;;;;;;0.73;0.73;;;5.90;99.90;;;;;;5093097;28;20040;-80
2023/12/16 08:29:18;;;;;;;0.75;0.75;;;5.90;99.90;;;;;;5094326;28;20032;-76
2023/12/16 08:31:45;;;;;;;0.80;0.80;;;5.90;99.90;;;;;;5089794;28;20031;-78
2023/12/16 08:34:10;;;;;;;0.75;0.75;;;5.90;99.90;;;;;;5091408;28;20101;-72
2023/12/16 08:36:36;;;;;;;0.93;0.93;;;5.90;99.90;;;;;;5088647;28;20456;-72
2023/12/16 08:39:02;;;;;;;1.30;1.20;;;5.90;99.90;;;;;;5091400;28;20051;-73
2023/12/16 08:41:27;;;;;;;0.80;0.80;;;6.00;99.90;;;;;;5085004;28;20125;-75
2023/12/16 08:43:54;;;;;;;0.80;0.80;;;6.00;99.90;;;;;;5092939;28;20185;-72
2023/12/16 08:46:23;;;;;;;1.05;1.00;;;6.00;99.90;;;;;;5092105;28;20494;-79
2023/12/16 08:48:48;;;;;;;1.30;0.98;;;7.00;99.90;;;;;;5089990;28;20048;-79
2023/12/16 08:51:23;;;;;;;0.80;0.80;;;6.00;99.90;;;;;;5089738;28;20051;-75
2023/12/16 08:53:49;;;;;;;1.00;0.90;;;6.00;99.90;;;;;;5091918;28;20502;-73
2023/12/16 08:56:17;;;;;;;0.90;0.90;;;6.80;99.90;;;;;;5086779;28;20048;-72
2023/12/16 08:58:46;;;;;;;1.17;1.10;;;6.10;99.90;;;;;;5083493;28;20071;-76
2023/12/16 09:01:12;;;;;;;0.80;0.80;;;6.10;99.90;;;;;;5091631;28;20046;-71
2023/12/16 09:03:41;;;;;;;0.80;0.80;;;6.30;99.90;;;;;;5089370;28;20372;-72
2023/12/16 09:06:07;;;;;;;0.70;0.70;;;6.10;99.90;;;;;;5086567;28;20089;-72
2023/12/16 09:08:32;;;;;;;0.93;0.93;;;6.20;99.90;;;;;;5091093;28;20039;-73
2023/12/16 09:10:58;;;;;;;0.75;0.75;;;6.20;99.90;;;;;;5082305;28;20048;-73
2023/12/16 09:13:23;;;;;;;0.70;0.70;;;6.20;99.90;;;;;;5091125;28;20034;-73
2023/12/16 09:15:49;;;;;;;1.17;1.17;;;6.20;99.90;;;;;;5087140;28;20044;-79
2023/12/16 09:18:15;;;;;;;0.90;0.90;;;6.20;99.90;;;;;;5091894;28;20461;-72
2023/12/16 09:20:40;;;;;;;1.52;1.20;;;6.30;99.90;;;;;;5092614;28;20046;-72
2023/12/16 09:23:06;;;;;;;2.10;1.10;;;6.30;99.90;;;;;;5093261;28;20036;-72
2023/12/16 09:25:31;;;;;;;1.75;1.65;;;6.30;99.90;;;;;;5093264;28;20048;-74
2023/12/16 09:27:57;;;;;;;1.08;1.00;;;6.30;99.90;;;;;;5092779;28;20047;-73
2023/12/16 09:30:23;;;;;;;0.90;0.90;;;6.40;99.90;;;;;;5093638;28;20040;-73
2023/12/16 09:32:48;;;;;;;0.90;0.90;;;6.40;99.90;;;;;;5093608;28;20076;-71
2023/12/16 09:35:14;;;;;;;1.00;1.00;;;6.40;99.90;;;;;;5093617;28;20376;-75
2023/12/16 09:37:39;;;;;;;0.90;0.90;;;6.50;99.90;;;;;;5093602;28;20044;-79
2023/12/16 09:40:06;;;;;;;0.75;0.75;;;6.50;99.90;;;;;;5092616;28;20048;-72
2023/12/16 09:42:34;;;;;;;1.25;1.15;;;6.50;99.90;;;;;;5092191;28;20040;-72
2023/12/16 09:44:59;;;;;;;0.77;0.77;;;6.60;99.90;;;;;;5093546;28;20037;-71
2023/12/16 09:47:25;;;;;;;0.70;0.70;;;6.50;99.90;;;;;;5093556;28;20130;-71
2023/12/16 09:49:53;;;;;;;0.80;0.80;;;6.50;99.90;;;;;;5093412;28;20489;-72
2023/12/16 09:52:19;;;;;;;0.80;0.80;;;6.60;99.90;;;;;;5093944;28;20350;-73
2023/12/16 09:54:44;;;;;;;0.90;0.90;;;6.60;99.90;;;;;;5092415;28;20105;-77
2023/12/16 09:57:13;;;;;;;0.90;0.90;;;6.90;99.90;;;;;;5093381;28;20040;-71
2023/12/16 09:59:41;;;;;;;1.00;1.00;;;6.60;99.90;;;;;;5092435;28;20048;-70
2023/12/16 10:02:14;;;;;;;1.35;1.25;;;6.60;99.90;;;;;;5093286;28;20036;-71
2023/12/16 10:04:41;;;;;;;0.88;0.88;;;6.60;99.90;;;;;;5093400;28;20071;-72
2023/12/16 10:07:08;;;;;;;0.80;0.80;;;6.60;99.90;;;;;;5093284;28;20376;-70
2023/12/16 10:09:34;;;;;;;1.42;1.00;;;6.60;99.90;;;;;;5093499;28;20033;-70
2023/12/16 10:12:00;;;;;;;0.90;0.90;;;6.60;99.90;;;;;;5093436;28;20043;-71
2023/12/16 10:14:26;;;;;;;0.85;0.85;;;7.50;99.90;;;;;;5092263;28;20388;-71
2023/12/16 10:17:02;;;;;;;0.80;0.80;;;6.60;99.90;;;;;;5095176;28;20063;-71
2023/12/16 10:19:28;;;;;;;0.85;0.85;;;6.60;99.90;;;;;;5096386;28;20032;-73
2023/12/16 10:21:53;;;;;;;2.30;1.42;;;6.60;99.90;;;;;;5097318;28;20085;-69
2023/12/16 10:24:19;;;;;;;2.67;1.70;;;6.60;99.90;;;;;;5094078;28;20380;-72
2023/12/16 10:26:45;;;;;;;1.10;1.08;;;6.60;99.90;;;;;;5108014;28;20142;-73
2023/12/16 10:29:11;;;;;;;0.80;0.80;;;6.70;99.90;;;;;;5096833;28;20032;-70
2023/12/16 10:31:38;;;;;;;1.00;1.00;;;6.70;99.90;;;;;;5101102;28;20475;-71
2023/12/16 10:34:03;;;;;;;0.80;0.80;;;6.70;99.90;;;;;;5096646;28;20115;-73
2023/12/16 10:36:30;;;;;;;0.90;0.90;;;7.70;99.90;;;;;;5103570;28;20082;-74
2023/12/16 10:38:57;;;;;;;0.90;0.90;;;6.70;99.90;;;;;;5097399;28;20035;-69
2023/12/16 10:41:22;;;;;;;1.45;1.35;;;7.40;99.90;;;;;;5096896;28;20036;-70
2023/12/16 10:43:48;;;;;;;0.80;0.80;;;6.70;99.90;;;;;;5097080;28;20032;-75
2023/12/16 10:46:17;;;;;;;1.33;1.23;;;6.70;99.90;;;;;;5098025;28;20032;-71
2023/12/16 10:48:49;;;;;;;0.80;0.80;;;6.80;99.90;;;;;;5096837;28;20051;-71
2023/12/16 10:51:17;;;;;;;0.80;0.80;;;6.80;99.90;;;;;;5095154;28;20051;-71
2023/12/16 10:53:48;;;;;;;0.80;0.80;;;6.80;99.90;;;;;;5094811;28;20040;-71
2023/12/16 10:56:29;;;;;;;1.48;1.38;;;6.80;99.90;;;;;;5096069;28;20085;-71
2023/12/16 10:59:05;;;;;;;1.75;1.65;;;6.80;99.90;;;;;;5095479;28;20051;-71
2023/12/16 11:01:37;;;;;;;1.05;1.05;;;6.80;99.90;;;;;;5093953;28;20051;-71
2023/12/16 11:04:33;;;;;;;0.80;0.80;;;6.80;99.90;;;;;;5094072;28;20544;-71
2023/12/16 11:07:13;;;;;;;0.90;0.90;;;6.80;99.90;;;;;;5092766;28;20555;-69
2023/12/16 11:09:40;;;;;;;0.90;0.90;;;7.90;99.90;;;;;;5093861;28;20085;-71
2023/12/16 11:12:07;;;;;;;1.20;1.10;;;6.90;99.90;;;;;;5094020;28;20048;-71
2023/12/16 11:14:36;;;;;;;0.80;0.80;;;6.90;99.90;;;;;;5094839;28;20115;-71
2023/12/16 11:17:09;;;;;;;3.22;1.98;;;6.90;99.90;;;;;;5095791;28;20127;-71
2023/12/16 11:20:01;;;;;;;1.52;1.42;;;6.90;99.90;;;;;;5095790;28;20105;-71
2023/12/16 11:22:27;;;;;;;0.90;0.90;;;6.90;99.90;;;;;;5095683;28;20036;-71
2023/12/16 11:24:53;;;;;;;0.80;0.80;;;7.00;99.90;;;;;;5095430;28;20039;-71
2023/12/16 11:27:20;;;;;;;0.80;0.80;;;7.00;99.90;;;;;;5095623;28;20044;-71
2023/12/16 11:29:46;;;;;;;1.25;1.15;;;7.00;99.90;;;;;;5095619;28;20040;-71
2023/12/16 11:32:12;;;;;;;0.80;0.80;;;7.60;99.90;;;;;;5095191;28;20145;-71
2023/12/16 11:34:40;;;;;;;0.90;0.90;;;7.00;99.90;;;;;;5095514;28;20032;-71
2023/12/16 11:37:06;;;;;;;0.80;0.80;;;7.10;99.90;;;;;;5095478;28;20129;-71
2023/12/16 11:39:37;;;;;;;0.98;0.98;;;7.10;99.90;;;;;;5095458;28;20082;-71
2023/12/16 11:42:03;;;;;;;0.95;0.95;;;7.10;99.90;;;;;;5095271;28;20093;-71
2023/12/16 11:44:52;;;;;;;0.80;0.80;;;7.10;99.90;;;;;;5095074;28;20468;-71
2023/12/16 11:47:25;;;;;;;1.13;1.10;;;7.10;99.90;;;;;;5095777;28;20040;-71
2023/12/16 11:49:55;;;;;;;1.30;1.20;;;8.10;99.90;;;;;;5095240;28;20069;-71
2023/12/16 11:52:22;;;;;;;1.40;1.30;;;7.20;99.90;;;;;;5095511;28;20043;-71
2023/12/16 11:54:55;;;;;;;1.20;1.10;;;7.20;99.90;;;;;;5095212;28;20109;-71
2023/12/16 11:57:26;;;;;;;0.90;0.90;;;7.20;99.90;;;;;;5095028;28;20468;-71
2023/12/16 11:59:53;;;;;;;1.55;1.20;;;7.30;99.90;;;;;;5094267;28;20040;-71
2023/12/16 12:02:19;;;;;;;;;;;7.30;99.90;;;;;;5095348;28;20036;-71
2023/12/16 12:04:45;;;;;;;1.02;0.98;;;7.30;99.90;;;;;;5094935;28;19939;-71
2023/12/16 12:07:11;;;;;;;3.37;2.27;;;7.30;99.90;;;;;;5094946;28;20112;-71
2023/12/16 12:09:41;;;;;;;0.93;0.93;;;7.30;99.90;;;;;;5094852;28;20426;-71
2023/12/16 12:12:06;;;;;;;1.45;1.35;;;7.60;99.90;;;;;;5094729;28;20463;-71
2023/12/16 12:14:32;;;;;;;1.00;1.00;;;7.40;99.90;;;;;;5094777;28;20036;-71
2023/12/16 12:16:59;;;;;;;1.00;1.00;;;7.40;99.90;;;;;;5094747;28;20048;-72
2023/12/16 12:19:24;;;;;;;1.40;0.80;;;8.30;99.90;;;;;;5094390;28;20047;-71
2023/12/16 12:21:50;;;;;;;1.08;1.08;;;7.40;99.90;;;;;;5094627;28;20036;-72
2023/12/16 12:24:16;;;;;;;0.77;0.77;;;8.00;99.90;;;;;;5094484;28;20135;-71
2023/12/16 12:26:42;;;;;;;1.48;1.38;;;7.50;99.90;;;;;;5094206;28;20472;-71
2023/12/16 12:29:08;;;;;;;1.77;1.35;;;7.50;99.90;;;;;;5094504;28;20055;-71
2023/12/16 12:31:46;;;;;;;1.52;1.42;;;7.50;99.90;;;;;;5094471;28;20139;-71
2023/12/16 12:34:22;;;;;;;2.20;2.00;;;7.70;99.90;;;;;;5094409;28;20074;-71
2023/12/16 12:36:54;;;;;;;1.23;1.13;;;7.90;99.90;;;;;;5094375;28;20043;-71
2023/12/16 12:39:20;;;;;;;0.80;0.80;;;7.50;99.90;;;;;;5094117;28;20047;-71
2023/12/16 12:42:00;;;;;;;0.90;0.90;;;7.90;99.90;;;;;;5094440;28;20039;-71
2023/12/16 12:44:26;;;;;;;1.80;1.70;;;7.50;99.90;;;;;;5094285;28;20044;-71
2023/12/16 12:46:51;;;;;;;1.23;1.13;;;7.50;99.90;;;;;;5094220;28;20432;-71
2023/12/16 12:49:18;;;;;;;0.90;0.90;;;8.00;99.90;;;;;;5094237;28;20075;-71
2023/12/16 12:51:51;;;;;;;1.60;1.50;;;7.50;99.90;;;;;;5094096;28;20036;-71
2023/12/16 12:54:18;;;;;;;0.98;0.98;;;7.50;99.90;;;;;;5094532;28;20384;-71